Time;durP1;ratioP1;P1;durP2;ratioP2;P2;SDS_P1;SDS_P2;PMS_P1;PMS_P2;Temp;Humidity;BMP_temperature;BMP_pressure;BME280_temperature;BME280_humidity;BME280_pressure;Samples;Min_cycle;Max_cycle;Signal;HPM_P1;HPM_P2
2023/05/13 00:00:57;;;;;;;2.80;2.60;;;17.80;74.30;;;;;;5052072;28;20484;-73
2023/05/13 00:03:23;;;;;;;2.67;2.47;;;17.70;74.40;;;;;;5051254;28;20464;-74
2023/05/13 00:05:52;;;;;;;3.00;2.63;;;17.70;74.50;;;;;;5051368;28;20459;-74
2023/05/13 00:08:19;;;;;;;3.00;2.70;;;17.70;74.50;;;;;;5051640;28;20562;-74
2023/05/13 00:10:45;;;;;;;3.20;2.40;;;17.70;74.70;;;;;;5051311;28;20484;-74
2023/05/13 00:13:12;;;;;;;3.53;2.57;;;17.60;74.70;;;;;;5051702;28;20482;-74
2023/05/13 00:15:40;;;;;;;3.87;2.47;;;17.60;74.70;;;;;;5051384;28;20456;-74
2023/05/13 00:18:07;;;;;;;2.40;2.20;;;17.50;74.80;;;;;;5051872;28;20574;-74
2023/05/13 00:20:34;;;;;;;2.53;2.33;;;17.50;74.90;;;;;;5051076;28;20502;-74
2023/05/13 00:23:03;;;;;;;2.47;2.27;;;17.50;75.00;;;;;;5046578;28;21184;-74
2023/05/13 00:25:29;;;;;;;3.50;2.70;;;17.40;74.90;;;;;;5048184;28;20508;-74
2023/05/13 00:27:56;;;;;;;2.97;2.70;;;17.30;74.90;;;;;;5043085;28;20973;-75
2023/05/13 00:30:23;;;;;;;2.40;2.20;;;17.30;74.90;;;;;;5051705;28;20825;-74
2023/05/13 00:32:50;;;;;;;3.03;2.40;;;17.30;75.00;;;;;;5050647;28;20487;-74
2023/05/13 00:35:17;;;;;;;3.60;2.20;;;17.30;75.00;;;;;;5051864;28;20448;-74
2023/05/13 00:37:44;;;;;;;2.57;2.37;;;17.30;75.10;;;;;;5051080;28;20443;-74
2023/05/13 00:40:19;;;;;;;2.60;2.40;;;17.30;75.10;;;;;;5051134;28;20583;-74
2023/05/13 00:42:46;;;;;;;2.40;2.20;;;17.30;75.50;;;;;;5050462;28;21228;-74
2023/05/13 00:45:13;;;;;;;2.60;2.40;;;17.20;75.20;;;;;;5034100;28;20941;-74
2023/05/13 00:47:40;;;;;;;3.50;2.37;;;17.20;75.20;;;;;;5035216;28;20503;-74
2023/05/13 00:50:09;;;;;;;2.40;2.30;;;17.20;75.40;;;;;;5040311;28;20451;-73
2023/05/13 00:52:37;;;;;;;4.33;2.33;;;17.20;75.50;;;;;;5050707;28;20448;-74
2023/05/13 00:55:04;;;;;;;2.93;2.63;;;17.10;75.50;;;;;;5049752;28;20456;-74
2023/05/13 00:57:33;;;;;;;3.47;2.87;;;17.10;75.50;;;;;;5050748;28;20531;-73
2023/05/13 01:00:00;;;;;;;3.97;2.70;;;17.10;75.60;;;;;;5050272;28;20494;-73
2023/05/13 01:02:33;;;;;;;3.30;2.70;;;17.00;75.50;;;;;;5050428;28;20448;-74
2023/05/13 01:05:10;;;;;;;3.77;3.00;;;17.00;75.70;;;;;;5050525;28;20518;-74
2023/05/13 01:07:45;;;;;;;4.53;2.67;;;17.00;75.80;;;;;;5019147;28;20476;-74
2023/05/13 01:10:22;;;;;;;3.47;2.83;;;17.00;76.00;;;;;;5050528;28;21040;-74
2023/05/13 01:12:56;;;;;;;2.90;2.63;;;17.00;76.10;;;;;;5032541;28;20833;-74
2023/05/13 01:15:26;;;;;;;3.40;3.10;;;16.90;76.00;;;;;;5050049;28;20462;-74
2023/05/13 01:17:56;;;;;;;6.27;2.80;;;16.90;76.00;;;;;;5049572;28;20463;-74
2023/05/13 01:20:23;;;;;;;3.20;2.70;;;16.90;76.00;;;;;;5048137;28;20839;-74
2023/05/13 01:22:52;;;;;;;4.33;2.90;;;16.80;76.00;;;;;;5049800;28;20455;-74
2023/05/13 01:25:18;;;;;;;3.70;3.30;;;16.80;76.00;;;;;;5050214;28;20451;-74
2023/05/13 01:27:47;;;;;;;5.00;3.03;;;16.80;76.10;;;;;;5049830;28;20563;-73
2023/05/13 01:30:14;;;;;;;4.37;2.90;;;16.80;76.20;;;;;;5048975;28;20932;-73
2023/05/13 01:32:41;;;;;;;2.90;2.70;;;16.70;76.10;;;;;;5050554;28;20453;-73
2023/05/13 01:35:10;;;;;;;3.27;2.93;;;16.70;76.10;;;;;;5049557;28;20468;-73
2023/05/13 01:37:38;;;;;;;3.37;3.07;;;16.70;76.20;;;;;;5049430;28;20478;-73
2023/05/13 01:40:08;;;;;;;3.40;3.00;;;16.70;76.20;;;;;;5050487;28;20511;-73
2023/05/13 01:42:35;;;;;;;3.07;2.77;;;16.60;76.30;;;;;;5031958;28;20444;-75
2023/05/13 01:45:03;;;;;;;3.83;2.80;;;16.60;76.30;;;;;;5050345;28;20452;-75
2023/05/13 01:47:29;;;;;;;3.23;2.93;;;16.60;76.40;;;;;;5039056;28;20555;-74
2023/05/13 01:49:56;;;;;;;3.13;2.83;;;16.60;76.50;;;;;;5048830;28;20464;-75
2023/05/13 01:52:23;;;;;;;3.03;2.80;;;16.60;76.60;;;;;;5050296;28;20563;-75
2023/05/13 01:54:50;;;;;;;4.20;2.80;;;16.50;76.50;;;;;;5048758;28;20480;-75
2023/05/13 01:57:18;;;;;;;2.90;2.70;;;16.50;76.60;;;;;;5048355;28;20479;-74
2023/05/13 01:59:45;;;;;;;3.30;3.00;;;16.50;76.80;;;;;;5048946;28;20483;-74
2023/05/13 02:02:12;;;;;;;5.03;2.80;;;16.50;76.80;;;;;;5049396;28;20962;-73
2023/05/13 02:04:39;;;;;;;3.27;2.97;;;16.50;76.80;;;;;;5049222;28;20511;-74
2023/05/13 02:07:06;;;;;;;3.93;2.83;;;16.50;76.80;;;;;;5048361;28;20677;-74
2023/05/13 02:09:33;;;;;;;3.27;2.97;;;16.40;76.70;;;;;;5050149;28;20543;-74
2023/05/13 02:12:00;;;;;;;3.00;2.80;;;16.40;76.70;;;;;;5049529;28;20458;-75
2023/05/13 02:14:28;;;;;;;3.03;2.83;;;16.40;76.90;;;;;;5049899;28;20460;-73
2023/05/13 02:16:55;;;;;;;4.07;3.13;;;16.40;76.90;;;;;;5049157;28;20452;-74
2023/05/13 02:19:23;;;;;;;3.27;2.97;;;16.30;76.80;;;;;;5049966;28;20939;-73
2023/05/13 02:21:50;;;;;;;3.00;2.77;;;16.30;76.80;;;;;;5052462;28;20518;-73
2023/05/13 02:24:17;;;;;;;3.20;2.90;;;16.30;76.90;;;;;;5052816;28;20534;-74
2023/05/13 02:26:45;;;;;;;3.63;2.80;;;16.30;77.00;;;;;;5048999;28;20552;-73
2023/05/13 02:29:11;;;;;;;4.10;2.90;;;16.20;77.00;;;;;;5053830;28;20456;-73
2023/05/13 02:31:41;;;;;;;3.40;3.10;;;16.20;77.00;;;;;;5052617;28;20470;-73
2023/05/13 02:34:08;;;;;;;3.60;3.00;;;16.20;77.20;;;;;;5053058;28;20500;-73
2023/05/13 02:36:35;;;;;;;5.33;2.70;;;16.20;77.20;;;;;;5053151;28;20535;-74
2023/05/13 02:39:02;;;;;;;3.50;2.90;;;16.10;77.20;;;;;;5051083;28;20448;-74
2023/05/13 02:41:29;;;;;;;3.00;2.80;;;16.10;77.00;;;;;;5054060;28;20479;-74
2023/05/13 02:43:56;;;;;;;3.40;3.10;;;16.10;77.00;;;;;;5052892;28;20467;-74
2023/05/13 02:46:23;;;;;;;5.50;3.27;;;16.10;77.10;;;;;;5052328;28;20472;-74
2023/05/13 02:48:51;;;;;;;3.00;2.80;;;16.10;77.00;;;;;;5045540;28;20456;-74
2023/05/13 02:51:18;;;;;;;3.50;2.83;;;16.00;76.90;;;;;;5053095;28;20555;-73
2023/05/13 02:53:45;;;;;;;3.17;2.87;;;16.00;77.00;;;;;;5052399;28;20459;-74
2023/05/13 02:56:15;;;;;;;3.17;2.93;;;16.00;77.00;;;;;;5016284;28;20474;-74
2023/05/13 02:58:41;;;;;;;3.47;3.10;;;15.90;77.00;;;;;;5052683;28;20456;-74
2023/05/13 03:01:08;;;;;;;2.63;2.43;;;15.90;77.00;;;;;;5052821;28;20483;-74
2023/05/13 03:03:35;;;;;;;4.30;2.93;;;15.90;77.20;;;;;;5051916;28;20818;-74
2023/05/13 03:06:04;;;;;;;3.37;3.07;;;15.90;77.30;;;;;;5052585;28;20990;-75
2023/05/13 03:08:30;;;;;;;3.40;3.10;;;15.90;77.30;;;;;;5051629;28;20542;-74
2023/05/13 03:10:58;;;;;;;3.53;2.93;;;15.90;77.30;;;;;;5052877;28;20448;-73
2023/05/13 03:13:24;;;;;;;5.67;3.20;;;15.80;77.30;;;;;;5050190;28;20440;-73
2023/05/13 03:15:51;;;;;;;4.27;3.50;;;15.80;77.30;;;;;;5052206;28;20440;-73
2023/05/13 03:18:18;;;;;;;4.67;3.27;;;15.80;77.30;;;;;;5052320;28;20456;-73
2023/05/13 03:20:45;;;;;;;3.30;3.07;;;15.80;77.40;;;;;;5052201;28;20487;-73
2023/05/13 03:23:13;;;;;;;4.73;3.23;;;15.80;77.50;;;;;;5051767;28;21177;-74
2023/05/13 03:25:40;;;;;;;3.43;3.13;;;15.80;77.60;;;;;;5060505;28;20447;-74
2023/05/13 03:28:09;;;;;;;4.80;3.30;;;15.70;77.50;;;;;;5059462;28;20511;-73
2023/05/13 03:30:35;;;;;;;3.33;3.03;;;15.70;77.60;;;;;;5050629;28;20452;-73
2023/05/13 03:33:02;;;;;;;3.73;3.43;;;15.70;77.60;;;;;;5051873;28;20452;-74
2023/05/13 03:35:29;;;;;;;4.40;3.63;;;15.70;78.40;;;;;;5052499;28;20448;-74
2023/05/13 03:37:56;;;;;;;3.87;3.53;;;15.60;77.60;;;;;;5051841;28;20803;-73
2023/05/13 03:40:24;;;;;;;3.40;3.00;;;15.60;77.70;;;;;;5051845;28;20483;-73
2023/05/13 03:42:51;;;;;;;4.90;3.80;;;15.60;77.70;;;;;;5051330;28;20455;-73
2023/05/13 03:45:18;;;;;;;3.50;3.20;;;15.60;77.90;;;;;;5052108;28;20467;-74
2023/05/13 03:47:45;;;;;;;7.00;3.53;;;15.60;77.90;;;;;;5051226;28;20457;-74
2023/05/13 03:50:12;;;;;;;4.73;3.67;;;15.50;77.70;;;;;;5048246;28;20460;-74
2023/05/13 03:52:39;;;;;;;4.33;3.37;;;15.50;77.80;;;;;;5051642;28;20452;-74
2023/05/13 03:55:06;;;;;;;3.50;3.20;;;15.50;77.80;;;;;;5051290;28;20487;-74
2023/05/13 03:57:34;;;;;;;3.97;3.60;;;15.50;77.90;;;;;;5052176;28;20452;-74
2023/05/13 04:00:02;;;;;;;4.47;3.03;;;15.50;77.80;;;;;;5052369;28;20454;-74
2023/05/13 04:02:29;;;;;;;3.67;3.37;;;15.50;77.70;;;;;;5052022;28;20457;-74
2023/05/13 04:04:56;;;;;;;3.53;3.23;;;15.50;77.60;;;;;;5053164;28;20483;-74
2023/05/13 04:07:23;;;;;;;4.43;3.90;;;15.50;77.70;;;;;;5051409;28;20452;-74
2023/05/13 04:09:50;;;;;;;3.80;3.50;;;15.40;77.60;;;;;;5031198;28;20929;-73
2023/05/13 04:12:17;;;;;;;3.60;3.30;;;15.40;77.60;;;;;;5050276;28;21030;-74
2023/05/13 04:14:45;;;;;;;3.43;3.13;;;15.50;77.70;;;;;;5075558;28;20444;-74
2023/05/13 04:17:12;;;;;;;4.43;3.60;;;15.50;77.70;;;;;;5075453;28;20451;-74
2023/05/13 04:19:39;;;;;;;5.03;3.40;;;15.50;77.60;;;;;;5074587;28;20520;-75
2023/05/13 04:22:06;;;;;;;3.47;3.00;;;15.50;77.50;;;;;;5068970;28;20494;-75
2023/05/13 04:24:33;;;;;;;3.30;3.00;;;15.50;77.60;;;;;;5073701;28;20464;-74
2023/05/13 04:27:00;;;;;;;3.93;3.03;;;15.50;77.50;;;;;;5052461;28;20456;-75
2023/05/13 04:29:26;;;;;;;3.77;3.00;;;15.50;77.60;;;;;;5047719;28;20452;-75
2023/05/13 04:31:54;;;;;;;3.63;3.33;;;15.50;77.50;;;;;;5050999;28;20457;-74
2023/05/13 04:34:23;;;;;;;3.30;3.00;;;15.50;77.40;;;;;;5050975;28;20452;-75
2023/05/13 04:36:50;;;;;;;3.50;3.20;;;15.50;77.30;;;;;;5051047;28;20457;-74
2023/05/13 04:39:17;;;;;;;3.20;2.90;;;15.60;77.30;;;;;;5050617;28;20448;-73
2023/05/13 04:41:43;;;;;;;3.70;2.80;;;15.60;77.20;;;;;;5051588;28;20480;-74
2023/05/13 04:44:11;;;;;;;3.03;2.83;;;15.60;77.20;;;;;;5050114;28;20547;-75
2023/05/13 04:46:39;;;;;;;5.40;2.93;;;15.70;77.30;;;;;;5051211;28;20462;-74
2023/05/13 04:49:07;;;;;;;3.43;3.00;;;15.60;77.20;;;;;;5045309;28;20549;-74
2023/05/13 04:51:34;;;;;;;3.37;3.07;;;15.70;77.20;;;;;;5039443;28;20571;-74
2023/05/13 04:54:01;;;;;;;2.97;2.77;;;15.70;77.30;;;;;;5049075;28;20459;-73
2023/05/13 04:56:28;;;;;;;6.07;3.40;;;15.70;77.40;;;;;;5014750;28;20460;-75
2023/05/13 04:58:55;;;;;;;4.07;3.00;;;15.80;77.50;;;;;;4986049;28;20948;-73
2023/05/13 05:01:21;;;;;;;3.43;3.23;;;15.80;77.50;;;;;;5042210;28;20820;-74
2023/05/13 05:03:48;;;;;;;5.03;3.10;;;15.80;77.50;;;;;;5051189;28;20451;-74
2023/05/13 05:06:16;;;;;;;3.37;3.03;;;15.90;77.60;;;;;;5050567;28;20452;-75
2023/05/13 05:08:43;;;;;;;3.50;3.17;;;15.90;77.70;;;;;;5032581;28;20473;-75
2023/05/13 05:11:10;;;;;;;4.10;3.63;;;15.90;77.60;;;;;;5050663;28;20450;-76
2023/05/13 05:13:37;;;;;;;3.50;3.20;;;16.00;77.60;;;;;;5050183;28;20459;-75
2023/05/13 05:16:04;;;;;;;3.90;3.03;;;16.00;77.60;;;;;;5049793;28;20460;-76
2023/05/13 05:18:31;;;;;;;3.77;3.37;;;16.10;77.50;;;;;;5050088;28;20990;-75
2023/05/13 05:20:58;;;;;;;3.50;3.20;;;16.10;77.50;;;;;;5043236;28;20821;-75
2023/05/13 05:23:26;;;;;;;3.70;3.40;;;16.10;77.50;;;;;;5049302;28;20464;-76
2023/05/13 05:25:53;;;;;;;3.80;3.37;;;16.20;77.50;;;;;;5049592;28;20488;-75
2023/05/13 05:28:20;;;;;;;3.67;3.37;;;16.20;78.10;;;;;;5048670;28;20464;-76
2023/05/13 05:30:47;;;;;;;3.20;2.90;;;16.20;77.40;;;;;;5047960;28;20464;-75
2023/05/13 05:33:14;;;;;;;3.50;3.20;;;16.30;77.60;;;;;;5048870;28;20450;-75
2023/05/13 05:35:41;;;;;;;3.60;3.30;;;16.30;77.60;;;;;;5032130;28;20540;-74
2023/05/13 05:38:08;;;;;;;4.43;2.80;;;16.30;77.40;;;;;;5049331;28;20460;-75
2023/05/13 05:40:40;;;;;;;3.23;2.97;;;16.40;76.40;;;;;;5048854;28;20467;-74
2023/05/13 05:43:07;;;;;;;4.30;3.13;;;16.40;75.60;;;;;;5049660;28;20452;-76
2023/05/13 05:45:35;;;;;;;3.30;2.70;;;16.50;75.60;;;;;;5049716;28;20548;-75
2023/05/13 05:48:02;;;;;;;2.57;2.37;;;16.50;74.90;;;;;;5051555;28;20449;-75
2023/05/13 05:50:29;;;;;;;3.20;2.90;;;16.60;74.40;;;;;;5046165;28;20489;-75
2023/05/13 05:52:58;;;;;;;2.93;2.50;;;16.60;74.20;;;;;;5045351;28;20468;-76
2023/05/13 05:55:24;;;;;;;3.03;2.73;;;16.70;73.90;;;;;;4999989;28;20452;-75
2023/05/13 05:57:53;;;;;;;2.87;2.67;;;16.70;73.90;;;;;;5050311;28;20452;-75
2023/05/13 06:00:20;;;;;;;5.03;2.83;;;16.80;73.60;;;;;;5049692;28;20552;-76
2023/05/13 06:02:47;;;;;;;3.03;2.70;;;16.90;73.50;;;;;;5049953;28;20480;-75
2023/05/13 06:05:14;;;;;;;3.40;3.10;;;17.00;73.30;;;;;;5045866;28;20470;-75
2023/05/13 06:07:41;;;;;;;2.80;2.60;;;17.10;72.90;;;;;;5041470;28;20471;-75
2023/05/13 06:10:08;;;;;;;5.77;2.10;;;17.10;72.30;;;;;;5049561;28;20448;-75
2023/05/13 06:12:37;;;;;;;2.80;2.43;;;17.20;72.20;;;;;;5032083;28;20917;-75
2023/05/13 06:15:09;;;;;;;2.63;2.43;;;17.20;72.20;;;;;;5049590;28;20452;-75
2023/05/13 06:17:36;;;;;;;3.77;2.70;;;17.30;72.50;;;;;;5049033;28;20520;-75
2023/05/13 06:20:04;;;;;;;8.97;3.23;;;17.30;71.90;;;;;;5031682;28;20475;-76
2023/05/13 06:22:31;;;;;;;3.30;2.77;;;17.40;71.70;;;;;;5049825;28;20484;-75
2023/05/13 06:24:58;;;;;;;3.27;2.97;;;17.40;71.30;;;;;;5031632;28;20449;-75
2023/05/13 06:27:25;;;;;;;2.93;2.63;;;17.50;70.60;;;;;;5041303;28;20491;-75
2023/05/13 06:29:52;;;;;;;2.60;2.40;;;17.50;70.50;;;;;;5033578;28;20563;-76
2023/05/13 06:32:20;;;;;;;2.70;2.50;;;17.60;70.20;;;;;;5030352;28;20548;-75
2023/05/13 06:34:47;;;;;;;2.80;2.60;;;17.60;70.50;;;;;;5041574;28;20964;-75
2023/05/13 06:37:14;;;;;;;2.43;2.23;;;17.70;70.30;;;;;;5049477;28;20448;-75
2023/05/13 06:39:41;;;;;;;3.57;2.47;;;17.80;70.20;;;;;;5048905;28;20540;-74
2023/05/13 06:42:08;;;;;;;3.77;2.67;;;17.90;70.20;;;;;;5046969;28;20554;-75
2023/05/13 06:44:36;;;;;;;2.40;2.20;;;17.90;70.10;;;;;;5049643;28;20448;-74
2023/05/13 06:47:04;;;;;;;3.00;2.33;;;18.00;70.20;;;;;;5044615;28;20548;-75
2023/05/13 06:49:32;;;;;;;2.90;2.70;;;18.10;69.70;;;;;;5046952;28;20244;-75
2023/05/13 06:51:59;;;;;;;4.30;2.40;;;18.10;69.10;;;;;;5007567;28;20483;-75
2023/05/13 06:54:26;;;;;;;4.07;2.60;;;18.20;68.30;;;;;;5042619;28;20234;-77
2023/05/13 06:56:54;;;;;;;2.90;2.70;;;18.20;68.20;;;;;;5049487;28;20569;-77
2023/05/13 06:59:21;;;;;;;2.93;2.63;;;18.30;67.70;;;;;;5049581;28;20449;-76
2023/05/13 07:01:48;;;;;;;2.80;2.40;;;18.30;67.60;;;;;;5048531;28;20535;-76
2023/05/13 07:04:15;;;;;;;2.77;2.57;;;18.30;68.00;;;;;;5048854;28;20448;-76
2023/05/13 07:06:43;;;;;;;10.73;5.47;;;18.40;67.50;;;;;;5050950;28;20945;-75
2023/05/13 07:09:10;;;;;;;7.10;3.93;;;18.30;67.40;;;;;;5052158;28;20462;-75
2023/05/13 07:11:37;;;;;;;4.10;2.80;;;18.40;68.00;;;;;;5052902;28;20484;-75
2023/05/13 07:14:04;;;;;;;2.53;2.33;;;18.40;67.70;;;;;;5052347;28;20471;-77
2023/05/13 07:16:31;;;;;;;3.23;2.93;;;18.40;67.60;;;;;;5051602;28;20478;-75
2023/05/13 07:18:58;;;;;;;3.30;2.77;;;18.30;66.60;;;;;;5051645;28;20456;-75
2023/05/13 07:21:24;;;;;;;9.17;2.90;;;18.30;66.20;;;;;;5052593;28;20480;-75
2023/05/13 07:23:53;;;;;;;3.10;2.80;;;18.30;65.70;;;;;;5051812;28;20256;-75
2023/05/13 07:26:20;;;;;;;3.17;2.80;;;18.30;65.90;;;;;;5034267;28;20452;-75
2023/05/13 07:28:47;;;;;;;3.60;3.00;;;18.40;66.60;;;;;;5051782;28;20548;-75
2023/05/13 07:31:14;;;;;;;4.47;3.13;;;18.40;66.60;;;;;;5051471;28;20444;-74
2023/05/13 07:33:41;;;;;;;7.03;3.30;;;18.40;66.90;;;;;;5051937;28;20480;-75
2023/05/13 07:36:08;;;;;;;3.53;2.63;;;18.50;67.20;;;;;;5051113;28;20467;-77
2023/05/13 07:38:34;;;;;;;3.10;2.40;;;18.50;67.20;;;;;;5035373;28;20987;-74
2023/05/13 07:41:03;;;;;;;2.47;2.27;;;18.60;67.10;;;;;;5052500;28;20944;-75
2023/05/13 07:43:33;;;;;;;2.57;2.37;;;18.60;66.60;;;;;;5053420;28;20539;-75
2023/05/13 07:46:02;;;;;;;4.33;2.60;;;18.70;66.60;;;;;;5053387;28;20967;-77
2023/05/13 07:48:28;;;;;;;3.00;2.63;;;18.70;66.50;;;;;;5053874;28;20494;-77
2023/05/13 07:50:56;;;;;;;9.03;3.00;;;18.80;67.30;;;;;;5053718;28;20535;-75
2023/05/13 07:53:23;;;;;;;2.90;2.70;;;18.80;67.70;;;;;;5040098;28;20233;-80
2023/05/13 07:55:50;;;;;;;2.83;2.57;;;18.90;67.20;;;;;;5046399;28;20464;-78
2023/05/13 07:58:19;;;;;;;2.87;2.67;;;19.00;67.00;;;;;;5050695;28;20317;-80
2023/05/13 08:00:45;;;;;;;3.33;2.90;;;19.10;66.90;;;;;;5050126;28;20513;-75
2023/05/13 08:03:12;;;;;;;2.87;2.67;;;19.10;66.50;;;;;;5051648;28;20486;-75
2023/05/13 08:05:40;;;;;;;2.67;2.47;;;19.20;66.70;;;;;;5049814;28;20206;-75
2023/05/13 08:08:07;;;;;;;4.23;2.50;;;19.30;66.60;;;;;;5039180;28;20811;-75
2023/05/13 08:10:33;;;;;;;5.33;2.50;;;19.30;66.90;;;;;;5039882;28;20558;-76
2023/05/13 08:13:01;;;;;;;4.47;3.00;;;19.40;67.50;;;;;;5051816;28;20843;-75
2023/05/13 08:15:30;;;;;;;4.73;2.60;;;19.50;66.90;;;;;;5052019;28;20606;-75
2023/05/13 08:17:57;;;;;;;3.00;2.53;;;19.50;66.30;;;;;;5049836;28;20210;-75
2023/05/13 08:20:28;;;;;;;4.30;2.77;;;19.60;66.10;;;;;;5051624;28;20202;-76
2023/05/13 08:22:55;;;;;;;2.93;2.50;;;19.60;66.40;;;;;;5051874;28;20226;-75
2023/05/13 08:25:22;;;;;;;3.13;2.67;;;19.70;66.50;;;;;;5051226;28;20198;-74
2023/05/13 08:27:49;;;;;;;3.63;2.80;;;19.70;66.40;;;;;;5049403;28;20233;-74
2023/05/13 08:30:16;;;;;;;2.80;2.60;;;19.80;65.70;;;;;;5033987;28;20204;-74
2023/05/13 08:32:45;;;;;;;2.90;2.60;;;19.80;65.90;;;;;;4998600;28;20197;-74
2023/05/13 08:35:13;;;;;;;5.27;2.60;;;19.90;65.90;;;;;;5050412;28;20926;-74
2023/05/13 08:37:40;;;;;;;2.67;2.47;;;20.00;66.00;;;;;;5050034;28;20297;-74
2023/05/13 08:40:09;;;;;;;4.17;2.40;;;20.00;66.10;;;;;;5049962;28;20665;-74
2023/05/13 08:42:39;;;;;;;4.23;2.70;;;20.10;65.30;;;;;;5050568;28;20225;-74
2023/05/13 08:45:08;;;;;;;3.37;2.50;;;20.20;64.90;;;;;;5050706;28;20209;-73
2023/05/13 08:47:48;;;;;;;3.77;2.60;;;20.20;65.10;;;;;;5050690;28;20209;-75
2023/05/13 08:50:17;;;;;;;2.43;2.23;;;20.30;65.20;;;;;;5015020;28;20201;-74
2023/05/13 08:52:44;;;;;;;2.60;2.40;;;20.30;64.10;;;;;;5011239;28;20210;-74
2023/05/13 08:55:11;;;;;;;2.40;2.20;;;20.40;63.30;;;;;;5040022;28;20237;-74
2023/05/13 08:57:40;;;;;;;3.80;2.50;;;20.50;63.00;;;;;;5030482;28;20234;-74
2023/05/13 09:00:08;;;;;;;2.80;2.60;;;20.60;62.80;;;;;;4995540;28;20665;-74
2023/05/13 09:02:35;;;;;;;3.20;2.60;;;20.70;62.90;;;;;;5046316;28;20231;-73
2023/05/13 09:05:06;;;;;;;2.43;2.23;;;20.70;62.90;;;;;;5050059;28;20854;-74
2023/05/13 09:07:35;;;;;;;2.63;2.40;;;20.80;63.00;;;;;;5050265;28;20575;-73
2023/05/13 09:10:03;;;;;;;3.83;2.40;;;21.00;63.70;;;;;;5031158;28;20225;-74
2023/05/13 09:12:44;;;;;;;3.17;2.60;;;21.10;63.30;;;;;;4997830;28;20273;-74
2023/05/13 09:15:13;;;;;;;3.60;2.60;;;21.20;62.90;;;;;;5049731;28;20212;-74
2023/05/13 09:17:41;;;;;;;2.70;2.03;;;21.30;62.70;;;;;;5050022;28;20843;-74
2023/05/13 09:20:10;;;;;;;2.50;2.30;;;21.40;63.10;;;;;;5050409;28;20280;-74
2023/05/13 09:22:44;;;;;;;3.63;2.30;;;21.50;63.70;;;;;;5050373;28;20249;-74
2023/05/13 09:25:12;;;;;;;2.57;2.37;;;21.60;62.90;;;;;;5048922;28;20788;-74
2023/05/13 09:27:42;;;;;;;3.17;2.50;;;21.70;63.00;;;;;;5050290;28;20225;-74
2023/05/13 09:30:10;;;;;;;2.73;2.00;;;21.70;62.20;;;;;;5049735;28;20674;-75
2023/05/13 09:32:37;;;;;;;2.20;2.00;;;21.80;61.70;;;;;;5049633;28;20549;-75
2023/05/13 09:35:15;;;;;;;3.30;2.40;;;21.90;61.20;;;;;;5049355;28;20197;-75
2023/05/13 09:37:44;;;;;;;2.70;2.10;;;21.90;61.40;;;;;;5049520;28;20209;-75
2023/05/13 09:40:13;;;;;;;3.60;2.30;;;22.00;60.20;;;;;;5050101;28;20204;-75
2023/05/13 09:42:43;;;;;;;2.53;2.33;;;22.00;58.60;;;;;;5049790;28;20309;-74
2023/05/13 09:45:12;;;;;;;1.90;1.80;;;22.00;59.90;;;;;;5049477;28;20563;-74
2023/05/13 09:47:40;;;;;;;2.27;2.07;;;22.10;60.60;;;;;;5049329;28;20572;-75
2023/05/13 09:50:08;;;;;;;3.20;2.00;;;22.20;60.50;;;;;;5048594;28;20256;-75
2023/05/13 09:52:37;;;;;;;2.33;2.13;;;22.30;59.40;;;;;;4998565;28;20202;-74
2023/05/13 09:55:09;;;;;;;2.17;2.07;;;22.40;59.30;;;;;;5046159;28;20301;-74
2023/05/13 09:57:36;;;;;;;2.63;2.10;;;22.40;59.10;;;;;;4995816;28;20253;-74
2023/05/13 10:00:05;;;;;;;2.37;2.00;;;22.50;59.00;;;;;;5049806;28;20276;-74
2023/05/13 10:02:33;;;;;;;1.97;1.80;;;22.50;58.70;;;;;;5048553;28;20232;-74
2023/05/13 10:05:01;;;;;;;2.07;1.87;;;22.60;58.50;;;;;;5050281;28;20205;-73
2023/05/13 10:07:28;;;;;;;2.40;2.00;;;22.60;58.90;;;;;;5050275;28;20289;-75
2023/05/13 10:09:58;;;;;;;2.97;1.93;;;22.70;59.00;;;;;;5050123;28;20253;-74
2023/05/13 10:12:27;;;;;;;2.53;2.33;;;22.80;58.80;;;;;;5049380;28;20204;-74
2023/05/13 10:14:55;;;;;;;2.67;1.90;;;22.80;58.00;;;;;;5011305;28;20202;-74
2023/05/13 10:17:24;;;;;;;2.10;2.00;;;22.80;57.80;;;;;;5035502;28;20197;-75
2023/05/13 10:19:53;;;;;;;2.43;2.00;;;22.80;57.30;;;;;;5049584;28;20212;-75
2023/05/13 10:22:28;;;;;;;2.53;2.00;;;22.80;57.70;;;;;;5049149;28;20271;-76
2023/05/13 10:24:57;;;;;;;3.20;1.83;;;22.90;57.90;;;;;;5048688;28;20272;-75
2023/05/13 10:27:29;;;;;;;1.80;1.70;;;22.90;57.90;;;;;;5049232;28;20210;-75
2023/05/13 10:29:59;;;;;;;1.67;1.57;;;22.90;57.50;;;;;;5049881;28;20206;-76
2023/05/13 10:32:28;;;;;;;2.20;2.00;;;22.90;57.50;;;;;;5049173;28;20651;-75
2023/05/13 10:34:59;;;;;;;1.93;1.80;;;23.00;57.10;;;;;;4998096;28;20210;-76
2023/05/13 10:38:03;;;;;;;2.00;1.80;;;22.90;56.70;;;;;;5048547;28;20259;-76
2023/05/13 10:40:52;;;;;;;2.00;1.80;;;22.90;55.90;;;;;;5007474;28;20228;-75
2023/05/13 10:43:22;;;;;;;2.50;1.90;;;22.90;57.20;;;;;;5053494;28;20216;-75
2023/05/13 10:45:51;;;;;;;2.23;1.80;;;22.90;57.00;;;;;;5053104;28;20206;-75
2023/05/13 10:48:19;;;;;;;1.80;1.70;;;23.00;57.20;;;;;;5053815;28;20210;-75
2023/05/13 10:50:54;;;;;;;1.87;1.60;;;23.00;56.20;;;;;;5052710;28;20840;-74
2023/05/13 10:53:23;;;;;;;2.00;1.67;;;23.00;55.70;;;;;;5053449;28;20201;-75
2023/05/13 10:55:54;;;;;;;2.10;1.90;;;23.00;56.50;;;;;;5044397;28;20217;-75
2023/05/13 10:58:28;;;;;;;2.00;1.80;;;23.10;56.70;;;;;;5047693;28;20628;-75
2023/05/13 11:01:13;;;;;;;2.57;1.90;;;23.10;55.90;;;;;;5052748;28;20216;-76
2023/05/13 11:03:40;;;;;;;1.90;1.80;;;23.10;55.90;;;;;;5053192;28;20321;-75
2023/05/13 11:06:18;;;;;;;2.00;1.80;;;23.10;56.10;;;;;;5053121;28;20288;-75
2023/05/13 11:08:46;;;;;;;1.60;1.50;;;23.10;55.70;;;;;;5051646;28;20211;-75
2023/05/13 11:11:32;;;;;;;2.17;1.70;;;23.10;56.20;;;;;;5053012;28;20212;-75
2023/05/13 11:14:25;;;;;;;1.80;1.70;;;23.10;56.30;;;;;;5053177;28;20654;-75
2023/05/13 11:16:54;;;;;;;3.63;2.07;;;23.00;56.00;;;;;;5032674;28;20213;-76
2023/05/13 11:19:23;;;;;;;2.63;1.80;;;23.00;57.20;;;;;;5053215;28;20206;-75
2023/05/13 11:21:52;;;;;;;3.50;2.10;;;23.00;57.50;;;;;;5052186;28;20202;-75
2023/05/13 11:24:20;;;;;;;3.70;1.80;;;23.00;57.50;;;;;;5016409;28;20229;-76
2023/05/13 11:26:50;;;;;;;2.27;2.07;;;22.90;57.00;;;;;;5052682;28;20220;-76
2023/05/13 11:29:29;;;;;;;2.30;2.00;;;23.00;57.00;;;;;;5052883;28;20220;-76
2023/05/13 11:31:57;;;;;;;1.70;1.60;;;23.00;55.80;;;;;;5052768;28;20215;-76
2023/05/13 11:34:24;;;;;;;2.63;2.23;;;23.00;55.70;;;;;;5051940;28;20253;-77
2023/05/13 11:36:56;;;;;;;2.47;2.23;;;23.00;56.20;;;;;;5052387;28;20245;-75
2023/05/13 11:39:26;;;;;;;3.73;1.90;;;23.20;56.50;;;;;;5052648;28;20205;-76
2023/05/13 11:41:54;;;;;;;1.93;1.70;;;23.20;56.00;;;;;;5052358;28;20238;-77
2023/05/13 11:44:23;;;;;;;2.23;1.80;;;23.40;55.70;;;;;;5050933;28;20361;-76
2023/05/13 11:46:53;;;;;;;4.50;2.03;;;23.50;55.60;;;;;;5050555;28;20206;-76
2023/05/13 11:49:39;;;;;;;1.97;1.87;;;23.70;55.10;;;;;;5051297;28;20216;-74
2023/05/13 11:52:09;;;;;;;2.00;1.90;;;23.90;55.70;;;;;;5016541;28;20202;-77
2023/05/13 11:54:45;;;;;;;2.17;1.97;;;24.00;55.00;;;;;;5052597;28;20209;-75
2023/05/13 11:57:19;;;;;;;2.30;2.00;;;24.00;54.50;;;;;;5040585;28;20201;-75
2023/05/13 11:59:50;;;;;;;2.47;2.10;;;24.10;55.50;;;;;;5061065;28;20213;-75
2023/05/13 12:02:21;;;;;;;3.33;2.20;;;24.30;55.30;;;;;;5064155;28;20230;-75
2023/05/13 12:04:48;;;;;;;2.67;1.73;;;24.40;54.30;;;;;;5052879;28;20232;-76
2023/05/13 12:07:20;;;;;;;1.80;1.70;;;24.40;53.90;;;;;;5051632;28;20206;-76
2023/05/13 12:09:47;;;;;;;2.57;2.23;;;24.60;53.90;;;;;;5051306;28;20300;-76
2023/05/13 12:12:15;;;;;;;2.63;1.87;;;24.70;53.60;;;;;;5050526;28;20289;-75
2023/05/13 12:14:43;;;;;;;2.00;1.90;;;24.80;54.20;;;;;;5051315;28;20213;-75
2023/05/13 12:17:10;;;;;;;2.33;2.10;;;24.90;54.00;;;;;;5051563;28;20237;-75
2023/05/13 12:19:40;;;;;;;1.80;1.70;;;24.90;53.60;;;;;;5051308;28;20206;-75
2023/05/13 12:22:08;;;;;;;2.10;2.00;;;24.90;53.30;;;;;;5050582;28;20651;-76
2023/05/13 12:24:35;;;;;;;3.47;2.10;;;24.90;53.10;;;;;;5051380;28;20226;-75
2023/05/13 12:27:06;;;;;;;2.10;1.87;;;24.90;53.70;;;;;;5050583;28;20217;-76
2023/05/13 12:29:41;;;;;;;2.50;2.30;;;25.00;53.50;;;;;;5051326;28;20213;-76
2023/05/13 12:32:08;;;;;;;2.23;2.03;;;25.00;52.40;;;;;;5050365;28;20205;-76
2023/05/13 12:34:37;;;;;;;2.37;2.17;;;25.00;53.00;;;;;;5051185;28;20679;-78
2023/05/13 12:37:13;;;;;;;2.53;2.07;;;25.00;53.00;;;;;;5050869;28;20650;-75
2023/05/13 12:39:40;;;;;;;2.40;2.20;;;25.10;53.20;;;;;;5051214;28;20735;-76
2023/05/13 12:42:14;;;;;;;2.83;2.60;;;25.10;52.60;;;;;;5050995;28;20210;-77
2023/05/13 12:44:43;;;;;;;2.73;2.53;;;25.10;53.20;;;;;;5050216;28;20378;-74
2023/05/13 12:47:10;;;;;;;2.43;2.23;;;24.90;52.00;;;;;;5051079;28;20232;-75
2023/05/13 12:49:51;;;;;;;2.60;2.40;;;24.90;52.80;;;;;;5051453;28;20566;-74
2023/05/13 12:52:20;;;;;;;2.57;2.27;;;24.80;52.30;;;;;;5051467;28;20206;-77
2023/05/13 12:54:48;;;;;;;2.30;2.00;;;24.80;52.70;;;;;;5051219;28;20237;-76